createdAt,value
2022-07-31T00:03:49.394Z,11.60
2022-07-31T00:08:59.264Z,11.00
2022-07-31T00:14:04.233Z,12.30
2022-07-31T00:19:09.199Z,11.83
2022-07-31T00:24:17.064Z,11.33
2022-07-31T00:29:21.976Z,13.77
2022-07-31T00:34:26.953Z,12.57
2022-07-31T00:39:39.388Z,11.33
2022-07-31T00:44:44.359Z,11.80
2022-07-31T00:49:53.283Z,12.47
2022-07-31T00:55:00.816Z,11.93
2022-07-31T01:00:07.464Z,11.20
2022-07-31T01:05:12.745Z,10.90
2022-07-31T01:10:38.756Z,11.50
2022-07-31T01:15:48.926Z,13.17
2022-07-31T01:20:57.915Z,11.53
2022-07-31T01:26:21.043Z,10.97
2022-07-31T01:31:48.109Z,11.40
2022-07-31T01:37:00.972Z,11.50
2022-07-31T01:42:09.709Z,11.60
2022-07-31T01:47:22.462Z,11.53
2022-07-31T01:52:29.835Z,11.97
2022-07-31T01:57:37.074Z,11.53
2022-07-31T02:02:48.136Z,11.00
2022-07-31T02:07:55.541Z,10.80
2022-07-31T02:13:05.645Z,11.13
2022-07-31T02:18:15.924Z,10.40
2022-07-31T02:23:34.183Z,9.77
2022-07-31T02:28:41.268Z,10.97
2022-07-31T02:33:50.718Z,10.90
2022-07-31T02:38:57.808Z,10.17
2022-07-31T02:44:04.512Z,10.70
2022-07-31T02:49:13.978Z,10.27
2022-07-31T02:54:20.143Z,10.10
2022-07-31T02:59:25.185Z,10.77
2022-07-31T03:04:40.063Z,10.97
2022-07-31T03:09:44.911Z,11.40
2022-07-31T03:15:12.942Z,10.13
2022-07-31T03:20:22.466Z,10.77
2022-07-31T03:25:27.480Z,10.10
2022-07-31T03:30:32.439Z,10.07
2022-07-31T03:35:44.497Z,10.43
2022-07-31T03:40:50.620Z,10.27
2022-07-31T03:45:57.143Z,9.97
2022-07-31T03:51:06.039Z,9.57
2022-07-31T03:56:12.908Z,10.00
2022-07-31T04:01:20.666Z,9.67
2022-07-31T04:06:29.717Z,8.73
2022-07-31T04:11:35.666Z,10.00
2022-07-31T04:16:43.168Z,9.13
2022-07-31T04:21:51.111Z,10.80
2022-07-31T04:26:58.733Z,10.27
2022-07-31T04:32:10.240Z,10.23
2022-07-31T04:37:32.040Z,11.07
2022-07-31T04:42:37.212Z,10.57
2022-07-31T04:47:42.490Z,9.47
2022-07-31T04:52:50.502Z,9.33
2022-07-31T04:57:55.587Z,8.47
2022-07-31T05:03:00.511Z,7.00
2022-07-31T05:08:08.294Z,6.80
2022-07-31T05:13:20.708Z,5.70
2022-07-31T05:18:25.764Z,5.43
2022-07-31T05:23:52.973Z,5.03
2022-07-31T05:29:12.684Z,4.63
2022-07-31T05:34:17.889Z,4.77
2022-07-31T05:39:25.810Z,5.23
2022-07-31T05:44:50.646Z,4.27
2022-07-31T05:49:55.666Z,4.40
2022-07-31T05:55:03.260Z,4.73
2022-07-31T06:00:34.467Z,3.93
2022-07-31T06:05:39.356Z,3.90
2022-07-31T06:10:46.983Z,3.67
2022-07-31T06:15:52.042Z,3.40
2022-07-31T06:20:56.923Z,3.83
2022-07-31T06:26:05.900Z,3.70
2022-07-31T06:31:11.012Z,3.40
2022-07-31T06:36:19.965Z,3.15
2022-07-31T06:41:50.043Z,4.03
2022-07-31T06:47:07.079Z,3.22
2022-07-31T06:52:39.415Z,3.90
2022-07-31T06:57:47.456Z,3.70
2022-07-31T07:02:52.797Z,3.38
2022-07-31T07:07:57.812Z,3.08
2022-07-31T07:13:05.855Z,3.10
2022-07-31T07:18:14.575Z,3.35
2022-07-31T07:23:27.884Z,2.90
2022-07-31T07:28:55.075Z,2.70
2022-07-31T07:34:01.625Z,3.00
2022-07-31T07:39:06.960Z,3.22
2022-07-31T07:44:15.815Z,3.08
2022-07-31T07:49:22.922Z,3.60
2022-07-31T07:54:47.346Z,3.92
2022-07-31T08:00:27.007Z,3.63
2022-07-31T08:05:37.171Z,3.17
2022-07-31T08:10:43.327Z,3.90
2022-07-31T08:15:55.809Z,3.38
2022-07-31T08:21:35.406Z,3.72
2022-07-31T08:26:52.851Z,3.40
2022-07-31T08:32:00.415Z,3.60
2022-07-31T08:37:52.553Z,3.10
2022-07-31T08:42:52.987Z,3.03
2022-07-31T08:48:03.182Z,3.40
2022-07-31T08:53:17.991Z,3.15
2022-07-31T08:58:38.723Z,3.50
2022-07-31T09:03:48.656Z,3.75
2022-07-31T09:08:54.411Z,2.95
2022-07-31T09:14:01.946Z,3.65
2022-07-31T09:19:51.152Z,3.45
2022-07-31T09:24:56.826Z,2.75
2022-07-31T09:30:02.916Z,3.38
2022-07-31T09:35:30.564Z,3.28
2022-07-31T09:40:48.327Z,3.17
2022-07-31T09:46:29.044Z,2.97
2022-07-31T09:51:43.761Z,3.03
2022-07-31T09:56:52.835Z,2.67
2022-07-31T10:02:00.223Z,2.95
2022-07-31T10:07:08.551Z,3.17
2022-07-31T10:12:17.387Z,2.85
2022-07-31T10:17:32.662Z,3.00
2022-07-31T10:23:08.425Z,3.38
2022-07-31T10:28:13.807Z,2.95
2022-07-31T10:33:42.465Z,2.80
2022-07-31T10:39:08.572Z,2.80
2022-07-31T10:44:38.505Z,3.00
2022-07-31T10:49:56.636Z,3.15
2022-07-31T10:55:30.143Z,3.17
2022-07-31T11:01:08.455Z,3.30
2022-07-31T11:06:43.021Z,2.40
2022-07-31T11:12:20.309Z,2.58
2022-07-31T11:18:21.999Z,2.60
2022-07-31T11:23:20.521Z,2.63
2022-07-31T11:28:28.092Z,2.55
2022-07-31T11:33:41.945Z,2.70
2022-07-31T11:38:50.080Z,2.65
2022-07-31T11:43:57.767Z,3.40
2022-07-31T11:49:04.229Z,2.72
2022-07-31T11:54:10.216Z,2.67
2022-07-31T11:59:45.469Z,2.83
2022-07-31T12:04:43.576Z,3.05
2022-07-31T12:10:00.640Z,3.47
2022-07-31T12:15:22.768Z,2.88
2022-07-31T12:20:35.531Z,2.90
2022-07-31T12:25:46.079Z,2.10
2022-07-31T12:31:01.387Z,2.80
2022-07-31T12:36:14.911Z,2.90
2022-07-31T12:41:20.034Z,2.55
2022-07-31T12:46:39.430Z,2.58
2022-07-31T12:51:47.019Z,2.00
2022-07-31T12:56:52.239Z,1.95
2022-07-31T13:01:59.950Z,2.13
2022-07-31T13:07:05.612Z,2.15
2022-07-31T13:12:12.656Z,2.45
2022-07-31T13:17:20.211Z,2.08
2022-07-31T13:22:25.293Z,2.00
2022-07-31T13:27:32.542Z,2.10
2022-07-31T13:32:40.144Z,2.13
2022-07-31T13:37:46.626Z,2.40
2022-07-31T13:42:51.500Z,1.92
2022-07-31T13:48:00.479Z,1.83
2022-07-31T13:53:06.652Z,1.77
2022-07-31T13:58:11.555Z,2.13
2022-07-31T14:03:20.510Z,1.60
2022-07-31T14:08:33.075Z,2.08
2022-07-31T14:13:55.969Z,1.42
2022-07-31T14:19:05.209Z,1.95
2022-07-31T14:24:12.207Z,1.90
2022-07-31T14:29:17.125Z,1.70
2022-07-31T14:34:35.199Z,2.28
2022-07-31T14:39:42.869Z,1.80
2022-07-31T14:44:48.178Z,1.65
2022-07-31T14:50:07.588Z,1.58
2022-07-31T14:55:15.244Z,1.73
2022-07-31T15:00:21.165Z,1.80
2022-07-31T15:06:39.649Z,1.50
2022-07-31T15:10:53.972Z,1.30
2022-07-31T15:16:00.040Z,1.20
2022-07-31T15:21:08.241Z,1.30
2022-07-31T15:26:13.214Z,1.40
2022-07-31T15:31:18.097Z,1.20
2022-07-31T15:36:26.861Z,1.60
2022-07-31T15:41:31.810Z,1.23
2022-07-31T15:46:36.761Z,1.40
2022-07-31T15:51:44.527Z,1.58
2022-07-31T15:56:49.632Z,1.20
2022-07-31T16:01:54.535Z,1.25
2022-07-31T16:08:29.794Z,1.27
2022-07-31T16:12:27.234Z,1.23
2022-07-31T16:17:38.199Z,1.30
2022-07-31T16:22:46.214Z,1.20
2022-07-31T16:27:51.654Z,1.10
2022-07-31T16:32:57.109Z,1.10
2022-07-31T16:38:04.774Z,1.05
2022-07-31T16:43:49.860Z,1.00
2022-07-31T16:48:37.092Z,1.20
2022-07-31T16:54:14.420Z,1.08
2022-07-31T16:59:09.552Z,1.05
2022-07-31T17:04:14.446Z,1.02
2022-07-31T17:09:22.071Z,1.27
2022-07-31T17:14:29.271Z,1.20
2022-07-31T17:19:41.360Z,1.20
2022-07-31T17:24:53.456Z,1.70
2022-07-31T17:29:58.387Z,1.20
2022-07-31T17:35:03.619Z,1.23
2022-07-31T17:40:33.521Z,1.27
2022-07-31T17:45:59.525Z,1.00
2022-07-31T17:51:04.381Z,1.30
2022-07-31T17:56:13.166Z,1.23
2022-07-31T18:01:19.873Z,1.10
2022-07-31T18:06:24.849Z,1.15
2022-07-31T18:11:32.443Z,1.17
2022-07-31T18:16:37.489Z,1.20
2022-07-31T18:21:42.617Z,1.05
2022-07-31T18:26:50.679Z,1.38
2022-07-31T18:31:55.612Z,1.20
2022-07-31T18:37:00.481Z,0.88
2022-07-31T18:42:08.206Z,1.40
2022-07-31T18:47:13.110Z,1.17
2022-07-31T18:52:17.933Z,1.20
2022-07-31T18:57:25.522Z,1.30
2022-07-31T19:02:31.426Z,1.23
2022-07-31T19:07:37.460Z,1.30
2022-07-31T19:12:44.972Z,1.52
2022-07-31T19:17:50.946Z,1.35
2022-07-31T19:22:56.225Z,1.60
2022-07-31T19:28:04.184Z,1.45
2022-07-31T19:33:09.280Z,1.08
2022-07-31T19:38:15.521Z,1.60
2022-07-31T19:43:23.056Z,1.75
2022-07-31T19:48:28.189Z,1.77
2022-07-31T19:53:33.177Z,1.63
2022-07-31T19:58:41.912Z,1.70
2022-07-31T20:03:47.037Z,1.90
2022-07-31T20:08:52.000Z,2.03
2022-07-31T20:13:59.497Z,2.83
2022-07-31T20:19:04.399Z,2.45
2022-07-31T20:24:11.700Z,1.60
2022-07-31T20:29:20.209Z,1.48
2022-07-31T20:34:25.987Z,1.23
2022-07-31T20:39:33.641Z,1.35
2022-07-31T20:44:42.978Z,1.80
2022-07-31T20:49:47.997Z,1.48
2022-07-31T20:54:52.927Z,1.40
2022-07-31T21:00:00.709Z,1.83
2022-07-31T21:05:06.225Z,1.67
2022-07-31T21:10:12.526Z,3.58
2022-07-31T21:15:43.190Z,2.00
2022-07-31T21:20:50.702Z,1.77
2022-07-31T21:26:00.160Z,2.13
2022-07-31T21:31:08.557Z,1.70
2022-07-31T21:36:16.165Z,1.70
2022-07-31T21:41:23.100Z,2.00
2022-07-31T21:46:32.154Z,2.00
2022-07-31T21:51:38.345Z,1.50
2022-07-31T21:56:45.543Z,1.57
2022-07-31T22:02:08.225Z,1.80
2022-07-31T22:07:25.717Z,1.63
2022-07-31T22:12:30.702Z,2.20
2022-07-31T22:17:38.246Z,2.13
2022-07-31T22:22:45.330Z,1.80
2022-07-31T22:27:56.564Z,2.10
2022-07-31T22:33:05.881Z,2.00
2022-07-31T22:38:11.768Z,2.13
2022-07-31T22:44:09.506Z,2.00
2022-07-31T22:48:44.540Z,2.23
2022-07-31T22:53:50.349Z,2.27
2022-07-31T22:58:55.152Z,2.60
2022-07-31T23:04:02.641Z,2.47
2022-07-31T23:09:10.477Z,2.30
2022-07-31T23:14:15.407Z,2.80
2022-07-31T23:19:22.820Z,2.60
2022-07-31T23:24:27.746Z,2.23
2022-07-31T23:29:32.840Z,2.30
2022-07-31T23:34:49.108Z,2.43
2022-07-31T23:39:54.073Z,2.53
2022-07-31T23:44:59.161Z,2.37
2022-07-31T23:50:07.847Z,2.73
2022-07-31T23:55:13.124Z,3.03
